Time;durP1;ratioP1;P1;durP2;ratioP2;P2;SDS_P1;SDS_P2;PMS_P1;PMS_P2;Temp;Humidity;BMP_temperature;BMP_pressure;BME280_temperature;BME280_humidity;BME280_pressure;Samples;Min_cycle;Max_cycle;Signal;HPM_P1;HPM_P2
2021/12/12 00:02:20;;;;;;;;;;;;;;;;;;5065422;28;19935;-67
2021/12/12 00:04:50;;;;;;;;;;;;;;;;;;5064490;28;20602;-67
2021/12/12 00:07:21;;;;;;;;;;;;;;;;;;5064544;28;19932;-67
2021/12/12 00:09:48;;;;;;;;;;;;;;;;;;5064881;28;19925;-67
2021/12/12 00:12:22;;;;;;;;;;;;;;;;;;5066241;28;19924;-67
2021/12/12 00:14:52;;;;;;;;;;;;;;;;;;5058280;28;20355;-67
2021/12/12 00:17:21;;;;;;;;;;;;;;;;;;5062061;28;20340;-67
2021/12/12 00:19:53;;;;;;;;;;;;;;;;;;5065702;28;19929;-67
2021/12/12 00:22:28;;;;;;;;;;;;;;;;;;5062581;28;19929;-67
2021/12/12 00:25:01;;;;;;;;;;;;;;;;;;5068144;28;19925;-67
2021/12/12 00:27:37;;;;;;;;;;;;;;;;;;5061309;28;19933;-67
2021/12/12 00:30:04;;;;;;;;;;;;;;;;;;5063216;28;19932;-67
2021/12/12 00:32:34;;;;;;;;;;;;;;;;;;5057493;28;19928;-67
2021/12/12 00:35:06;;;;;;;;;;;;;;;;;;5067320;28;19929;-67
2021/12/12 00:37:37;;;;;;;;;;;;;;;;;;5064000;28;19925;-67
2021/12/12 00:40:06;;;;;;;;;;;;;;;;;;5066861;28;20564;-67
2021/12/12 00:42:36;;;;;;;;;;;;;;;;;;5082731;28;19928;-67
2021/12/12 00:45:04;;;;;;;;;;;;;;;;;;5089155;28;19924;-68
2021/12/12 00:47:32;;;;;;;;;;;;;;;;;;5086641;28;19932;-67
2021/12/12 00:50:07;;;;;;;;;;;;;;;;;;5074414;28;19962;-67
2021/12/12 00:52:37;;;;;;;;;;;;;;;;;;5088615;28;19932;-67
2021/12/12 00:55:20;;;;;;;;;;;;;;;;;;5103112;28;20024;-68
2021/12/12 00:57:53;;;;;;;;;;;;;;;;;;5082689;28;19928;-67
2021/12/12 01:00:24;;;;;;;;;;;;;;;;;;5085152;28;19938;-67
2021/12/12 01:02:53;;;;;;;;;;;;;;;;;;5086648;28;20540;-67
2021/12/12 01:05:24;;;;;;;;;;;;;;;;;;5088649;28;19924;-67
2021/12/12 01:07:52;;;;;;;;;;;;;;;;;;5097431;28;19924;-67
2021/12/12 01:10:20;;;;;;;;;;;;;;;;;;5092279;28;19936;-67
2021/12/12 01:12:51;;;;;;;;;;;;;;;;;;5085779;28;19977;-68
2021/12/12 01:15:22;;;;;;;;;;;;;;;;;;5088404;28;20549;-67
2021/12/12 01:17:51;;;;;;;;;;;;;;;;;;5086252;28;19928;-67
2021/12/12 01:20:21;;;;;;;;;;;;;;;;;;5084149;28;20330;-67
2021/12/12 01:22:53;;;;;;;;;;;;;;;;;;5077725;28;19928;-68
2021/12/12 01:25:24;;;;;;;;;;;;;;;;;;5088637;28;19924;-68
2021/12/12 01:27:53;;;;;;;;;;;;;;;;;;5087254;28;19931;-67
2021/12/12 01:30:22;;;;;;;;;;;;;;;;;;5081470;28;19956;-67
2021/12/12 01:32:53;;;;;;;;;;;;;;;;;;5085580;28;19924;-67
2021/12/12 01:35:25;;;;;;;;;;;;;;;;;;5086009;28;19924;-67
2021/12/12 01:40:45;;;;;;;;;;;;;;;;;;5082353;28;20425;-67
2021/12/12 01:43:14;;;;;;;;;;;;;;;;;;5068517;28;19925;-68
2021/12/12 01:45:43;;;;;;;;;;;;;;;;;;5082563;28;19981;-68
2021/12/12 01:48:13;;;;;;;;;;;;;;;;;;5084194;28;19931;-68
2021/12/12 01:50:47;;;;;;;;;;;;;;;;;;5084856;28;19934;-67
2021/12/12 01:53:16;;;;;;;;;;;;;;;;;;5086759;28;19923;-68
2021/12/12 01:55:45;;;;;;;;;;;;;;;;;;5081940;28;19924;-68
2021/12/12 01:58:15;;;;;;;;;;;;;;;;;;5072249;28;19985;-67
2021/12/12 02:00:46;;;;;;;;;;;;;;;;;;5083063;28;19924;-68
2021/12/12 02:03:16;;;;;;;;;;;;;;;;;;5087024;28;20327;-68
2021/12/12 02:05:44;;;;;;;;;;;;;;;;;;5082390;28;19985;-68
2021/12/12 02:08:14;;;;;;;;;;;;;;;;;;5080156;28;19931;-67
2021/12/12 02:10:43;;;;;;;;;;;;;;;;;;5062696;28;19985;-68
2021/12/12 02:13:18;;;;;;;;;;;;;;;;;;5078548;28;19985;-67
2021/12/12 02:15:49;;;;;;;;;;;;;;;;;;5083376;28;19924;-67
2021/12/12 02:18:24;;;;;;;;;;;;;;;;;;5082500;28;19966;-68
2021/12/12 02:21:07;;;;;;;;;;;;;;;;;;5082970;28;19924;-67
2021/12/12 02:37:30;;;;;;;;;;;;;;;;;;5079512;28;19928;-67
2021/12/12 02:40:04;;;;;;;;;;;;;;;;;;5084595;28;19925;-67
2021/12/12 02:42:36;;;;;;;;;;;;;;;;;;5075551;28;19924;-67
2021/12/12 02:45:07;;;;;;;;;;;;;;;;;;5084187;28;19924;-67
2021/12/12 02:47:40;;;;;;;;;;;;;;;;;;5088310;28;19932;-67
2021/12/12 02:50:13;;;;;;;;;;;;;;;;;;5094266;28;20739;-67
2021/12/12 02:52:50;;;;;;;;;;;;;;;;;;5085999;28;20431;-67
2021/12/12 02:55:19;;;;;;;;;;;;;;;;;;5070807;28;19935;-67
2021/12/12 02:57:49;;;;;;;;;;;;;;;;;;5085818;28;19930;-67
2021/12/12 03:00:19;;;;;;;;;;;;;;;;;;5064401;28;19925;-67
2021/12/12 03:02:56;;;;;;;;;;;;;;;;;;5086567;28;20341;-67
2021/12/12 03:05:26;;;;;;;;;;;;;;;;;;5078697;28;19925;-68
2021/12/12 03:07:55;;;;;;;;;;;;;;;;;;5080210;28;19988;-68
2021/12/12 03:10:24;;;;;;;;;;;;;;;;;;5076225;28;19933;-67
2021/12/12 03:12:59;;;;;;;;;;;;;;;;;;5088775;28;19935;-67
2021/12/12 03:15:30;;;;;;;;;;;;;;;;;;5089009;28;20307;-67
2021/12/12 03:17:59;;;;;;;;;;;;;;;;;;5091858;28;19932;-67
2021/12/12 03:20:32;;;;;;;;;;;;;;;;;;5087054;28;19924;-67
2021/12/12 03:23:03;;;;;;;;;;;;;;;;;;5080246;28;20585;-68
2021/12/12 03:25:34;;;;;;;;;;;;;;;;;;5078790;28;19981;-67
2021/12/12 03:28:06;;;;;;;;;;;;;;;;;;5091040;28;19981;-68
2021/12/12 03:30:36;;;;;;;;;;;;;;;;;;5088543;28;19924;-67
2021/12/12 03:33:06;;;;;;;;;;;;;;;;;;5079732;28;20377;-68
2021/12/12 03:35:37;;;;;;;;;;;;;;;;;;5076572;28;19932;-67
2021/12/12 03:38:07;;;;;;;;;;;;;;;;;;5087004;28;19924;-67
2021/12/12 03:40:36;;;;;;;;;;;;;;;;;;5063715;28;20694;-67
2021/12/12 03:43:06;;;;;;;;;;;;;;;;;;5046616;28;19932;-67
2021/12/12 03:45:36;;;;;;;;;;;;;;;;;;5063149;28;19932;-67
2021/12/12 03:48:10;;;;;;;;;;;;;;;;;;5068985;28;20015;-67
2021/12/12 03:50:39;;;;;;;;;;;;;;;;;;5068052;28;19928;-67
2021/12/12 03:53:08;;;;;;;;;;;;;;;;;;5068146;28;19957;-67
2021/12/12 03:55:39;;;;;;;;;;;;;;;;;;5067090;28;19928;-67
2021/12/12 03:58:08;;;;;;;;;;;;;;;;;;5063115;28;20293;-67
2021/12/12 04:00:39;;;;;;;;;;;;;;;;;;5067599;28;19924;-67
2021/12/12 04:03:08;;;;;;;;;;;;;;;;;;5066148;28;19932;-67
2021/12/12 04:05:37;;;;;;;;;;;;;;;;;;5064508;28;19924;-67
2021/12/12 04:08:10;;;;;;;;;;;;;;;;;;5075065;28;19935;-67
2021/12/12 04:10:39;;;;;;;;;;;;;;;;;;5063312;28;19928;-67
2021/12/12 04:13:10;;;;;;;;;;;;;;;;;;5061328;28;20297;-68
2021/12/12 04:15:45;;;;;;;;;;;;;;;;;;5068441;28;19924;-67
2021/12/12 04:18:14;;;;;;;;;;;;;;;;;;5066295;28;19924;-67
2021/12/12 04:20:44;;;;;;;;;;;;;;;;;;5046399;28;19936;-67
2021/12/12 04:23:11;;;;;;;;;;;;;;;;;;5068650;28;19925;-68
2021/12/12 04:25:42;;;;;;;;;;;;;;;;;;5070288;28;19924;-67
2021/12/12 04:28:12;;;;;;;;;;;;;;;;;;5079106;28;20272;-67
2021/12/12 04:30:42;;;;;;;;;;;;;;;;;;5066143;28;20330;-67
2021/12/12 04:33:12;;;;;;;;;;;;;;;;;;5065031;28;19932;-67
2021/12/12 04:35:41;;;;;;;;;;;;;;;;;;5066790;28;19936;-67
2021/12/12 04:38:09;;;;;;;;;;;;;;;;;;5068383;28;20371;-67
2021/12/12 04:40:38;;;;;;;;;;;;;;;;;;5070751;28;20011;-67
2021/12/12 04:43:09;;;;;;;;;;;;;;;;;;5097085;28;20409;-67
2021/12/12 04:45:38;;;;;;;;;;;;;;;;;;5085399;28;19988;-67
2021/12/12 04:51:04;;;;;;;;;;;;;;;;;;5088272;28;19923;-67
2021/12/12 04:53:36;;;;;;;;;;;;;;;;;;5085785;28;19924;-67
2021/12/12 04:56:06;;;;;;;;;;;;;;;;;;5087540;28;19931;-67
2021/12/12 04:58:37;;;;;;;;;;;;;;;;;;5072643;28;19943;-68
2021/12/12 05:01:08;;;;;;;;;;;;;;;;;;5079703;28;19932;-67
2021/12/12 05:03:39;;;;;;;;;;;;;;;;;;5086580;28;20173;-67
2021/12/12 05:06:10;;;;;;;;;;;;;;;;;;5075779;28;19930;-68
2021/12/12 05:08:39;;;;;;;;;;;;;;;;;;5083619;28;19928;-67
2021/12/12 05:11:09;;;;;;;;;;;;;;;;;;5072289;28;19993;-67
2021/12/12 05:13:44;;;;;;;;;;;;;;;;;;5086783;28;19948;-68
2021/12/12 05:16:13;;;;;;;;;;;;;;;;;;5086376;28;20617;-67
2021/12/12 05:18:49;;;;;;;;;;;;;;;;;;5088367;28;19931;-67
2021/12/12 05:21:21;;;;;;;;;;;;;;;;;;5076454;28;20377;-67
2021/12/12 05:23:51;;;;;;;;;;;;;;;;;;5087747;28;19989;-67
2021/12/12 05:26:22;;;;;;;;;;;;;;;;;;5085268;28;19924;-67
2021/12/12 05:28:52;;;;;;;;;;;;;;;;;;5086087;28;19947;-67
2021/12/12 05:31:21;;;;;;;;;;;;;;;;;;5088536;28;19952;-68
2021/12/12 05:33:54;;;;;;;;;;;;;;;;;;5067862;28;20023;-67
2021/12/12 05:36:26;;;;;;;;;;;;;;;;;;5084258;28;19924;-67
2021/12/12 05:38:56;;;;;;;;;;;;;;;;;;5087270;28;19947;-67
2021/12/12 05:41:32;;;;;;;;;;;;;;;;;;5068385;28;20269;-67
2021/12/12 05:43:59;;;;;;;;;;;;;;;;;;5087147;28;19924;-67
2021/12/12 05:46:28;;;;;;;;;;;;;;;;;;5081010;28;19924;-67
2021/12/12 05:48:56;;;;;;;;;;;;;;;;;;5097129;28;19928;-67
2021/12/12 05:51:23;;;;;;;;;;;;;;;;;;5076214;28;19928;-67
2021/12/12 05:53:59;;;;;;;;;;;;;;;;;;5085892;28;19924;-67
2021/12/12 05:56:29;;;;;;;;;;;;;;;;;;5080570;28;19934;-67
2021/12/12 05:58:56;;;;;;;;;;;;;;;;;;5085569;28;19924;-67
2021/12/12 06:01:29;;;;;;;;;;;;;;;;;;5070249;28;20333;-67
2021/12/12 06:03:57;;;;;;;;;;;;;;;;;;5079058;28;19930;-67
2021/12/12 06:06:27;;;;;;;;;;;;;;;;;;5074122;28;19925;-67
2021/12/12 06:08:58;;;;;;;;;;;;;;;;;;5068012;28;19925;-67
2021/12/12 06:11:29;;;;;;;;;;;;;;;;;;5082742;28;20581;-67
2021/12/12 06:13:59;;;;;;;;;;;;;;;;;;5085841;28;20315;-67
2021/12/12 06:16:29;;;;;;;;;;;;;;;;;;5080158;28;19947;-68
2021/12/12 06:19:03;;;;;;;;;;;;;;;;;;5085707;28;19928;-67
2021/12/12 06:21:33;;;;;;;;;;;;;;;;;;5082705;28;19939;-67
2021/12/12 06:24:04;;;;;;;;;;;;;;;;;;5085306;28;19932;-67
2021/12/12 06:26:34;;;;;;;;;;;;;;;;;;5080836;28;19939;-67
2021/12/12 06:29:03;;;;;;;;;;;;;;;;;;5074754;28;20546;-67
2021/12/12 06:31:35;;;;;;;;;;;;;;;;;;5089345;28;19932;-67
2021/12/12 06:34:09;;;;;;;;;;;;;;;;;;5085647;28;20361;-68
2021/12/12 06:36:40;;;;;;;;;;;;;;;;;;5087069;28;20362;-68
2021/12/12 06:39:11;;;;;;;;;;;;;;;;;;5080861;28;20319;-67
2021/12/12 06:41:44;;;;;;;;;;;;;;;;;;5089231;28;19928;-67
2021/12/12 06:44:15;;;;;;;;;;;;;;;;;;5079185;28;19924;-67
2021/12/12 06:46:45;;;;;;;;;;;;;;;;;;5092137;28;19924;-67
2021/12/12 06:49:25;;;;;;;;;;;;;;;;;;5083101;28;19924;-68
2021/12/12 06:51:55;;;;;;;;;;;;;;;;;;5089674;28;20076;-67
2021/12/12 06:54:22;;;;;;;;;;;;;;;;;;5085926;28;19925;-67
2021/12/12 06:56:50;;;;;;;;;;;;;;;;;;5088892;28;19925;-67
2021/12/12 06:59:21;;;;;;;;;;;;;;;;;;5089678;28;19924;-67
2021/12/12 07:01:49;;;;;;;;;;;;;;;;;;5090440;28;19924;-67
2021/12/12 07:04:22;;;;;;;;;;;;;;;;;;5086212;28;19936;-67
2021/12/12 07:06:52;;;;;;;;;;;;;;;;;;5073536;28;19924;-68
2021/12/12 07:09:23;;;;;;;;;;;;;;;;;;5083676;28;19928;-67
2021/12/12 07:11:54;;;;;;;;;;;;;;;;;;5108463;28;19924;-67
2021/12/12 07:14:24;;;;;;;;;;;;;;;;;;5085806;28;19928;-67
2021/12/12 07:16:53;;;;;;;;;;;;;;;;;;5073652;28;19969;-68
2021/12/12 07:19:22;;;;;;;;;;;;;;;;;;5089834;28;19932;-67
2021/12/12 07:21:53;;;;;;;;;;;;;;;;;;5089986;28;20413;-64
2021/12/12 07:24:22;;;;;;;;;;;;;;;;;;5082480;28;19923;-63
2021/12/12 07:26:52;;;;;;;;;;;;;;;;;;5096624;28;19925;-68
2021/12/12 07:29:22;;;;;;;;;;;;;;;;;;5086361;28;20372;-68
2021/12/12 07:31:56;;;;;;;;;;;;;;;;;;5093172;28;19929;-63
2021/12/12 07:34:27;;;;;;;;;;;;;;;;;;5078186;28;19955;-64
2021/12/12 07:36:55;;;;;;;;;;;;;;;;;;5097375;28;19943;-64
2021/12/12 07:39:26;;;;;;;;;;;;;;;;;;5083050;28;19973;-63
2021/12/12 07:41:57;;;;;;;;;;;;;;;;;;5087060;28;20265;-63
2021/12/12 07:44:26;;;;;;;;;;;;;;;;;;5084456;28;19928;-64
2021/12/12 07:46:58;;;;;;;;;;;;;;;;;;5086056;28;19947;-64
2021/12/12 07:49:29;;;;;;;;;;;;;;;;;;5085222;28;19935;-64
2021/12/12 07:52:00;;;;;;;;;;;;;;;;;;5081783;28;20338;-64
2021/12/12 07:54:31;;;;;;;;;;;;;;;;;;5081852;28;20311;-64
2021/12/12 07:57:01;;;;;;;;;;;;;;;;;;5088224;28;19945;-63
2021/12/12 07:59:30;;;;;;;;;;;;;;;;;;5075413;28;19932;-63
2021/12/12 08:02:00;;;;;;;;;;;;;;;;;;5063995;28;19932;-64
2021/12/12 08:04:31;;;;;;;;;;;;;;;;;;5083578;28;20601;-65
2021/12/12 08:06:58;;;;;;;;;;;;;;;;;;5086372;28;19932;-64
2021/12/12 08:09:30;;;;;;;;;;;;;;;;;;5085109;28;19981;-64
2021/12/12 08:12:00;;;;;;;;;;;;;;;;;;5094171;28;19935;-68
2021/12/12 08:14:33;;;;;;;;;;;;;;;;;;5079537;28;20395;-68
2021/12/12 08:17:02;;;;;;;;;;;;;;;;;;5087616;28;19942;-66
2021/12/12 08:19:32;;;;;;;;;;;;;;;;;;5086211;28;19928;-65
2021/12/12 08:22:07;;;;;;;;;;;;;;;;;;5087150;28;19924;-68
2021/12/12 08:24:43;;;;;;;;;;;;;;;;;;5082040;28;19980;-68
2021/12/12 08:27:15;;;;;;;;;;;;;;;;;;5088633;28;20369;-68
2021/12/12 08:29:44;;;;;;;;;;;;;;;;;;5090875;28;19930;-68
2021/12/12 08:32:12;;;;;;;;;;;;;;;;;;5081603;28;19977;-64
2021/12/12 08:35:02;;;;;;;;;;;;;;;;;;5079853;28;19932;-64
2021/12/12 08:37:32;;;;;;;;;;;;;;;;;;5081141;28;19924;-69
2021/12/12 08:40:01;;;;;;;;;;;;;;;;;;5081768;28;20311;-69
2021/12/12 08:42:32;;;;;;;;;;;;;;;;;;5063872;28;19932;-70
2021/12/12 08:45:04;;;;;;;;;;;;;;;;;;5062943;28;19935;-69
2021/12/12 08:47:32;;;;;;;;;;;;;;;;;;5061384;28;19928;-68
2021/12/12 08:50:05;;;;;;;;;;;;;;;;;;5061113;28;19936;-67
2021/12/12 08:52:38;;;;;;;;;;;;;;;;;;5051384;28;19932;-69
2021/12/12 08:55:14;;;;;;;;;;;;;;;;;;5063519;28;19929;-69
2021/12/12 08:58:05;;;;;;;;;;;;;;;;;;5061751;28;19928;-69
2021/12/12 09:00:36;;;;;;;;;;;;;;;;;;5061534;28;19937;-65
2021/12/12 09:03:06;;;;;;;;;;;;;;;;;;5053699;28;19925;-64
2021/12/12 09:05:36;;;;;;;;;;;;;;;;;;5062312;28;19932;-68
2021/12/12 09:08:17;;;;;;;;;;;;;;;;;;5061907;28;19929;-68
2021/12/12 09:10:46;;;;;;;;;;;;;;;;;;5060012;28;19941;-68
2021/12/12 09:13:16;;;;;;;;;;;;;;;;;;5065194;28;19928;-68
2021/12/12 09:15:48;;;;;;;;;;;;;;;;;;5060868;28;19925;-68
2021/12/12 09:18:17;;;;;;;;;;;;;;;;;;5060731;28;20459;-69
2021/12/12 09:20:49;;;;;;;;;;;;;;;;;;5061973;28;19981;-64
2021/12/12 09:23:19;;;;;;;;;;;;;;;;;;5059204;28;19954;-64
2021/12/12 09:25:52;;;;;;;;;;;;;;;;;;5064312;28;19940;-64
2021/12/12 09:28:21;;;;;;;;;;;;;;;;;;5059283;28;19942;-64
2021/12/12 09:30:48;;;;;;;;;;;;;;;;;;5062181;28;20316;-64
2021/12/12 09:33:18;;;;;;;;;;;;;;;;;;5064737;28;19936;-64
2021/12/12 09:35:47;;;;;;;;;;;;;;;;;;5060358;28;19928;-64
2021/12/12 09:38:16;;;;;;;;;;;;;;;;;;5061162;28;19985;-64
2021/12/12 09:40:50;;;;;;;;;;;;;;;;;;5054789;28;21460;-68
2021/12/12 09:43:20;;;;;;;;;;;;;;;;;;5064945;28;20388;-69
2021/12/12 09:45:51;;;;;;;;;;;;;;;;;;5084525;28;19924;-69
2021/12/12 09:51:14;;;;;;;;;;;;;;;;;;5078289;28;20048;-68
2021/12/12 09:51:18;;;;;;;;;;;;;;;;;;5084602;28;20319;-64
2021/12/12 09:53:49;;;;;;;;;;;;;;;;;;5077413;28;19925;-64
2021/12/12 09:56:18;;;;;;;;;;;;;;;;;;5081621;28;19924;-65
2021/12/12 09:58:48;;;;;;;;;;;;;;;;;;5064837;28;20015;-64
2021/12/12 10:01:17;;;;;;;;;;;;;;;;;;5085254;28;19924;-65
2021/12/12 10:03:47;;;;;;;;;;;;;;;;;;5082703;28;19932;-65
2021/12/12 10:06:16;;;;;;;;;;;;;;;;;;5081324;28;19938;-64
2021/12/12 10:08:46;;;;;;;;;;;;;;;;;;5084007;28;19933;-65
2021/12/12 10:11:16;;;;;;;;;;;;;;;;;;5086394;28;19955;-65
2021/12/12 10:13:47;;;;;;;;;;;;;;;;;;5082134;28;19985;-65
2021/12/12 10:16:16;;;;;;;;;;;;;;;;;;5087510;28;19924;-65
2021/12/12 10:18:45;;;;;;;;;;;;;;;;;;5083643;28;20441;-65
2021/12/12 10:21:15;;;;;;;;;;;;;;;;;;5085886;28;19924;-65
2021/12/12 10:23:45;;;;;;;;;;;;;;;;;;5082006;28;19932;-66
2021/12/12 10:26:16;;;;;;;;;;;;;;;;;;5082962;28;19928;-65
2021/12/12 10:28:49;;;;;;;;;;;;;;;;;;5082077;28;19943;-65
2021/12/12 10:31:21;;;;;;;;;;;;;;;;;;5084802;28;19928;-66
2021/12/12 10:33:51;;;;;;;;;;;;;;;;;;5083369;28;20342;-66
2021/12/12 10:36:22;;;;;;;;;;;;;;;;;;5079457;28;19924;-68
2021/12/12 10:38:55;;;;;;;;;;;;;;;;;;5084713;28;21415;-68
2021/12/12 10:41:29;;;;;;;;;;;;;;;;;;5082296;28;19924;-65
2021/12/12 10:43:56;;;;;;;;;;;;;;;;;;5084443;28;19989;-65
2021/12/12 10:46:27;;;;;;;;;;;;;;;;;;5080826;28;19924;-65
2021/12/12 10:48:56;;;;;;;;;;;;;;;;;;5071360;28;20026;-65
2021/12/12 10:51:27;;;;;;;;;;;;;;;;;;5076445;28;20253;-69
2021/12/12 10:53:54;;;;;;;;;;;;;;;;;;5083183;28;19985;-69
2021/12/12 10:56:25;;;;;;;;;;;;;;;;;;5079675;28;20022;-68
2021/12/12 10:58:55;;;;;;;;;;;;;;;;;;5077902;28;19932;-69
2021/12/12 11:01:25;;;;;;;;;;;;;;;;;;5081354;28;19935;-68
2021/12/12 11:04:01;;;;;;;;;;;;;;;;;;5080810;28;19930;-68
2021/12/12 11:06:32;;;;;;;;;;;;;;;;;;5063354;28;19939;-68
2021/12/12 11:09:03;;;;;;;;;;;;;;;;;;5083113;28;19924;-68
2021/12/12 11:11:34;;;;;;;;;;;;;;;;;;5083484;28;20014;-65
2021/12/12 11:14:05;;;;;;;;;;;;;;;;;;5079255;28;19932;-64
2021/12/12 11:16:37;;;;;;;;;;;;;;;;;;5084213;28;20424;-64
2021/12/12 11:19:08;;;;;;;;;;;;;;;;;;5069678;28;20520;-65
2021/12/12 11:21:38;;;;;;;;;;;;;;;;;;5088012;28;20323;-69
2021/12/12 11:24:11;;;;;;;;;;;;;;;;;;5084664;28;19924;-69
2021/12/12 11:26:42;;;;;;;;;;;;;;;;;;5088762;28;20338;-68
2021/12/12 11:29:13;;;;;;;;;;;;;;;;;;5089546;28;19988;-68
2021/12/12 11:31:42;;;;;;;;;;;;;;;;;;5086574;28;19989;-66
2021/12/12 11:34:10;;;;;;;;;;;;;;;;;;5110381;28;19924;-66
2021/12/12 11:36:39;;;;;;;;;;;;;;;;;;5078982;28;19940;-65
2021/12/12 11:39:09;;;;;;;;;;;;;;;;;;5091655;28;19988;-65
2021/12/12 11:41:40;;;;;;;;;;;;;;;;;;5086159;28;19933;-65
2021/12/12 11:44:09;;;;;;;;;;;;;;;;;;5086349;28;19928;-65
2021/12/12 11:46:49;;;;;;;;;;;;;;;;;;5082939;28;19924;-65
2021/12/12 11:49:30;;;;;;;;;;;;;;;;;;5084907;28;20047;-65
2021/12/12 11:51:59;;;;;;;;;;;;;;;;;;5088387;28;19939;-65
2021/12/12 11:54:29;;;;;;;;;;;;;;;;;;5080357;28;20288;-65
2021/12/12 11:56:59;;;;;;;;;;;;;;;;;;5075106;28;19924;-66
2021/12/12 11:59:27;;;;;;;;;;;;;;;;;;5082736;28;19925;-66
2021/12/12 12:01:57;;;;;;;;;;;;;;;;;;5075399;28;20433;-65
2021/12/12 12:04:32;;;;;;;;;;;;;;;;;;5084907;28;19981;-65
2021/12/12 12:07:03;;;;;;;;;;;;;;;;;;5077576;28;19935;-68
2021/12/12 12:09:31;;;;;;;;;;;;;;;;;;5078195;28;19935;-68
2021/12/12 12:12:08;;;;;;;;;;;;;;;;;;5084518;28;19924;-64
2021/12/12 12:14:39;;;;;;;;;;;;;;;;;;5085301;28;19924;-65
2021/12/12 12:17:09;;;;;;;;;;;;;;;;;;5085695;28;20453;-65
2021/12/12 12:19:41;;;;;;;;;;;;;;;;;;5075611;28;20517;-64
2021/12/12 12:22:12;;;;;;;;;;;;;;;;;;5084931;28;20430;-64
2021/12/12 12:24:44;;;;;;;;;;;;;;;;;;5073474;28;19935;-64
2021/12/12 12:27:23;;;;;;;;;;;;;;;;;;5080927;28;19988;-68
2021/12/12 12:29:54;;;;;;;;;;;;;;;;;;5085597;28;19932;-68
2021/12/12 12:32:21;;;;;;;;;;;;;;;;;;5082406;28;19947;-69
2021/12/12 12:34:51;;;;;;;;;;;;;;;;;;5075749;28;19924;-67
2021/12/12 12:37:19;;;;;;;;;;;;;;;;;;5086019;28;19924;-64
2021/12/12 12:39:48;;;;;;;;;;;;;;;;;;5081338;28;19955;-64
2021/12/12 12:42:21;;;;;;;;;;;;;;;;;;5074844;28;19924;-67
2021/12/12 12:44:53;;;;;;;;;;;;;;;;;;5080831;28;19934;-68
2021/12/12 12:47:24;;;;;;;;;;;;;;;;;;5081615;28;19927;-64
2021/12/12 12:49:58;;;;;;;;;;;;;;;;;;5082569;28;19943;-64
2021/12/12 12:52:27;;;;;;;;;;;;;;;;;;5072402;28;20471;-64
2021/12/12 12:54:58;;;;;;;;;;;;;;;;;;5060767;28;19924;-63
2021/12/12 12:57:29;;;;;;;;;;;;;;;;;;5083367;28;20273;-64
2021/12/12 13:00:06;;;;;;;;;;;;;;;;;;5084184;28;19928;-64
2021/12/12 13:02:35;;;;;;;;;;;;;;;;;;5065074;28;19935;-67
2021/12/12 13:05:08;;;;;;;;;;;;;;;;;;5081764;28;19928;-67
2021/12/12 13:07:37;;;;;;;;;;;;;;;;;;5093765;28;19931;-67
2021/12/12 13:10:07;;;;;;;;;;;;;;;;;;5082940;28;19924;-67
2021/12/12 13:12:42;;;;;;;;;;;;;;;;;;5085806;28;19968;-67
2021/12/12 13:15:15;;;;;;;;;;;;;;;;;;5084050;28;19932;-64
2021/12/12 13:17:59;;;;;;;;;;;;;;;;;;5090451;28;19987;-64
2021/12/12 13:20:32;;;;;;;;;;;;;;;;;;5079118;28;19935;-67
2021/12/12 13:22:59;;;;;;;;;;;;;;;;;;5070424;28;19928;-68
2021/12/12 13:25:32;;;;;;;;;;;;;;;;;;5085478;28;19947;-67
2021/12/12 13:28:34;;;;;;;;;;;;;;;;;;5083099;28;19951;-68
2021/12/12 13:31:01;;;;;;;;;;;;;;;;;;5082758;28;19928;-64
2021/12/12 13:33:32;;;;;;;;;;;;;;;;;;5085933;28;19990;-64
2021/12/12 13:36:02;;;;;;;;;;;;;;;;;;5087409;28;19934;-67
2021/12/12 13:38:34;;;;;;;;;;;;;;;;;;5079894;28;20419;-67
2021/12/12 13:41:05;;;;;;;;;;;;;;;;;;5075878;28;20302;-68
2021/12/12 13:43:34;;;;;;;;;;;;;;;;;;5086195;28;19928;-68
2021/12/12 13:46:04;;;;;;;;;;;;;;;;;;5081854;28;19988;-68
2021/12/12 13:48:33;;;;;;;;;;;;;;;;;;5077015;28;19928;-68
2021/12/12 13:51:02;;;;;;;;;;;;;;;;;;5083250;28;19932;-67
2021/12/12 13:53:33;;;;;;;;;;;;;;;;;;5051366;28;19924;-66
2021/12/12 13:56:03;;;;;;;;;;;;;;;;;;5070463;28;19932;-69
2021/12/12 13:58:34;;;;;;;;;;;;;;;;;;5078983;28;19976;-68
2021/12/12 14:01:06;;;;;;;;;;;;;;;;;;5084576;28;19940;-66
2021/12/12 14:03:33;;;;;;;;;;;;;;;;;;5080739;28;19927;-66
2021/12/12 14:06:03;;;;;;;;;;;;;;;;;;5082873;28;19928;-66
2021/12/12 14:08:34;;;;;;;;;;;;;;;;;;5080151;28;19935;-67
2021/12/12 14:11:05;;;;;;;;;;;;;;;;;;5083891;28;20776;-68
2021/12/12 14:13:35;;;;;;;;;;;;;;;;;;5082825;28;19939;-69
2021/12/12 14:16:16;;;;;;;;;;;;;;;;;;5082443;28;20303;-67
2021/12/12 14:18:47;;;;;;;;;;;;;;;;;;5055192;28;19940;-66
2021/12/12 14:21:29;;;;;;;;;;;;;;;;;;5071276;28;20029;-68
2021/12/12 14:24:00;;;;;;;;;;;;;;;;;;5081147;28;19939;-69
2021/12/12 14:26:29;;;;;;;;;;;;;;;;;;5078377;28;19932;-70
2021/12/12 14:28:59;;;;;;;;;;;;;;;;;;5062520;28;19938;-69
2021/12/12 14:31:30;;;;;;;;;;;;;;;;;;5083361;28;19943;-69
2021/12/12 14:33:59;;;;;;;;;;;;;;;;;;5090115;28;19928;-70
2021/12/12 14:36:31;;;;;;;;;;;;;;;;;;5074871;28;19981;-70
2021/12/12 14:39:03;;;;;;;;;;;;;;;;;;5085046;28;19935;-71
2021/12/12 14:41:36;;;;;;;;;;;;;;;;;;5080034;28;19928;-68
2021/12/12 14:44:06;;;;;;;;;;;;;;;;;;5078567;28;20332;-68
2021/12/12 14:46:38;;;;;;;;;;;;;;;;;;5051214;28;20405;-64
2021/12/12 14:49:08;;;;;;;;;;;;;;;;;;5072831;28;19932;-65
2021/12/12 14:51:44;;;;;;;;;;;;;;;;;;5076516;28;19970;-65
2021/12/12 14:54:15;;;;;;;;;;;;;;;;;;5078980;28;20365;-66
2021/12/12 14:56:45;;;;;;;;;;;;;;;;;;5077290;28;19938;-65
2021/12/12 14:59:14;;;;;;;;;;;;;;;;;;5080834;28;20064;-64
2021/12/12 15:01:41;;;;;;;;;;;;;;;;;;5086636;28;19928;-65
2021/12/12 15:04:16;;;;;;;;;;;;;;;;;;5086347;28;19932;-65
2021/12/12 15:06:46;;;;;;;;;;;;;;;;;;5061118;28;20040;-64
2021/12/12 15:09:17;;;;;;;;;;;;;;;;;;5089309;28;19932;-65
2021/12/12 15:11:46;;;;;;;;;;;;;;;;;;5093286;28;19935;-68
2021/12/12 15:14:19;;;;;;;;;;;;;;;;;;5078217;28;19924;-68
2021/12/12 15:16:49;;;;;;;;;;;;;;;;;;5087539;28;19924;-65
2021/12/12 15:19:18;;;;;;;;;;;;;;;;;;5088328;28;19931;-65
2021/12/12 15:21:47;;;;;;;;;;;;;;;;;;5093699;28;20370;-66
2021/12/12 15:24:16;;;;;;;;;;;;;;;;;;5088406;28;20302;-66
2021/12/12 15:26:47;;;;;;;;;;;;;;;;;;5089860;28;19928;-66
2021/12/12 15:29:17;;;;;;;;;;;;;;;;;;5081725;28;19931;-65
2021/12/12 15:31:47;;;;;;;;;;;;;;;;;;5096173;28;20152;-68
2021/12/12 15:34:15;;;;;;;;;;;;;;;;;;5085551;28;19947;-68
2021/12/12 15:36:47;;;;;;;;;;;;;;;;;;5091374;28;20290;-65
2021/12/12 15:39:16;;;;;;;;;;;;;;;;;;5085227;28;20349;-65
2021/12/12 15:41:46;;;;;;;;;;;;;;;;;;5096568;28;19924;-65
2021/12/12 15:44:16;;;;;;;;;;;;;;;;;;5083797;28;19932;-68
2021/12/12 15:46:45;;;;;;;;;;;;;;;;;;5084747;28;19924;-69
2021/12/12 15:49:14;;;;;;;;;;;;;;;;;;5079467;28;19928;-69
2021/12/12 15:51:49;;;;;;;;;;;;;;;;;;5085247;28;19932;-69
2021/12/12 15:54:18;;;;;;;;;;;;;;;;;;5083326;28;19932;-68
2021/12/12 15:56:46;;;;;;;;;;;;;;;;;;5083326;28;19935;-69
2021/12/12 15:59:16;;;;;;;;;;;;;;;;;;5083462;28;20110;-69
2021/12/12 16:01:49;;;;;;;;;;;;;;;;;;5083675;28;19940;-69
2021/12/12 16:04:21;;;;;;;;;;;;;;;;;;5082433;28;19935;-69
2021/12/12 16:06:52;;;;;;;;;;;;;;;;;;5068022;28;19926;-69
2021/12/12 16:09:25;;;;;;;;;;;;;;;;;;5086750;28;19924;-69
2021/12/12 16:11:55;;;;;;;;;;;;;;;;;;5084046;28;19935;-69
2021/12/12 16:14:29;;;;;;;;;;;;;;;;;;5075764;28;19955;-69
2021/12/12 16:17:21;;;;;;;;;;;;;;;;;;5085237;28;20026;-69
2021/12/12 16:19:54;;;;;;;;;;;;;;;;;;5079461;28;19947;-68
2021/12/12 16:22:36;;;;;;;;;;;;;;;;;;5083633;28;19967;-68
2021/12/12 16:25:06;;;;;;;;;;;;;;;;;;5077172;28;19932;-68
2021/12/12 16:27:36;;;;;;;;;;;;;;;;;;5084469;28;19928;-68
2021/12/12 16:30:06;;;;;;;;;;;;;;;;;;5086930;28;19928;-69
2021/12/12 16:32:39;;;;;;;;;;;;;;;;;;5083135;28;20463;-69
2021/12/12 16:35:10;;;;;;;;;;;;;;;;;;5082850;28;19980;-69
2021/12/12 16:37:43;;;;;;;;;;;;;;;;;;5085366;28;19991;-69
2021/12/12 16:40:13;;;;;;;;;;;;;;;;;;5080538;28;19931;-69
2021/12/12 16:42:45;;;;;;;;;;;;;;;;;;5070496;28;20415;-69
2021/12/12 16:45:15;;;;;;;;;;;;;;;;;;5069853;28;19924;-68
2021/12/12 16:47:46;;;;;;;;;;;;;;;;;;5065945;28;19933;-68
2021/12/12 16:50:18;;;;;;;;;;;;;;;;;;5080924;28;20638;-68
2021/12/12 16:52:49;;;;;;;;;;;;;;;;;;5084813;28;19928;-68
2021/12/12 16:55:18;;;;;;;;;;;;;;;;;;5073462;28;20357;-68
2021/12/12 16:57:47;;;;;;;;;;;;;;;;;;5062090;28;20548;-68
2021/12/12 17:00:18;;;;;;;;;;;;;;;;;;5079493;28;19928;-69
2021/12/12 17:02:45;;;;;;;;;;;;;;;;;;5073158;28;19924;-69
2021/12/12 17:05:16;;;;;;;;;;;;;;;;;;5073155;28;20284;-69
2021/12/12 17:07:52;;;;;;;;;;;;;;;;;;5070482;28;19959;-69
2021/12/12 17:10:23;;;;;;;;;;;;;;;;;;5075927;28;19939;-70
2021/12/12 17:12:52;;;;;;;;;;;;;;;;;;5073936;28;19924;-69
2021/12/12 17:15:23;;;;;;;;;;;;;;;;;;5083413;28;19992;-70
2021/12/12 17:17:52;;;;;;;;;;;;;;;;;;5084300;28;19984;-71
2021/12/12 17:20:23;;;;;;;;;;;;;;;;;;5063786;28;19924;-71
2021/12/12 17:22:52;;;;;;;;;;;;;;;;;;5084069;28;19952;-70
2021/12/12 17:25:22;;;;;;;;;;;;;;;;;;5081117;28;20013;-67
2021/12/12 17:27:51;;;;;;;;;;;;;;;;;;5087016;28;19931;-67
2021/12/12 17:30:22;;;;;;;;;;;;;;;;;;5080699;28;19980;-67
2021/12/12 17:32:51;;;;;;;;;;;;;;;;;;5085562;28;20398;-68